sensor_id;sensor_type;location;lat;lon;timestamp;pressure;altitude;pressure_sealevel;temperature;humidity
14204;BME280;7185;51.854;6.622;2023-04-26T00:00:27;101595.19;;;6.71;71.43
14204;BME280;7185;51.854;6.622;2023-04-26T00:02:59;101595.16;;;6.69;71.27
14204;BME280;7185;51.854;6.622;2023-04-26T00:05:32;101591.66;;;6.67;71.39
14204;BME280;7185;51.854;6.622;2023-04-26T00:08:05;101593.41;;;6.68;71.47
14204;BME280;7185;51.854;6.622;2023-04-26T00:10:36;101593.53;;;6.78;71.27
14204;BME280;7185;51.854;6.622;2023-04-26T00:13:09;101593.41;;;6.70;71.31
14204;BME280;7185;51.854;6.622;2023-04-26T00:15:41;101596.00;;;6.67;71.48
14204;BME280;7185;51.854;6.622;2023-04-26T00:18:13;101592.41;;;6.60;71.96
14204;BME280;7185;51.854;6.622;2023-04-26T00:20:46;101589.75;;;6.56;71.94
14204;BME280;7185;51.854;6.622;2023-04-26T00:23:17;101597.59;;;6.57;71.96
14204;BME280;7185;51.854;6.622;2023-04-26T00:25:49;101595.75;;;6.48;72.03
14204;BME280;7185;51.854;6.622;2023-04-26T00:28:23;101594.00;;;6.49;72.17
14204;BME280;7185;51.854;6.622;2023-04-26T00:30:55;101589.56;;;6.43;72.14
14204;BME280;7185;51.854;6.622;2023-04-26T00:33:46;101591.38;;;6.47;72.08
14204;BME280;7185;51.854;6.622;2023-04-26T00:36:19;101586.94;;;6.42;72.33
14204;BME280;7185;51.854;6.622;2023-04-26T00:39:06;101599.91;;;6.37;72.29
14204;BME280;7185;51.854;6.622;2023-04-26T00:41:38;101596.34;;;6.32;72.66
14204;BME280;7185;51.854;6.622;2023-04-26T00:44:10;101584.28;;;6.37;72.32
14204;BME280;7185;51.854;6.622;2023-04-26T00:46:46;101591.13;;;6.30;72.53
14204;BME280;7185;51.854;6.622;2023-04-26T00:49:21;101595.38;;;6.25;72.79
14204;BME280;7185;51.854;6.622;2023-04-26T00:51:54;101582.34;;;6.24;73.08
14204;BME280;7185;51.854;6.622;2023-04-26T00:54:26;101581.50;;;6.26;72.83
14204;BME280;7185;51.854;6.622;2023-04-26T00:56:57;101576.25;;;6.23;72.68
14204;BME280;7185;51.854;6.622;2023-04-26T00:59:32;101579.66;;;6.19;73.11
14204;BME280;7185;51.854;6.622;2023-04-26T01:02:04;101577.97;;;6.21;73.18
14204;BME280;7185;51.854;6.622;2023-04-26T01:04:54;101582.22;;;6.16;73.00
14204;BME280;7185;51.854;6.622;2023-04-26T01:07:37;101583.91;;;6.12;73.14
14204;BME280;7185;51.854;6.622;2023-04-26T01:10:12;101581.31;;;6.14;73.27
14204;BME280;7185;51.854;6.622;2023-04-26T01:12:44;101575.09;;;6.04;73.62
14204;BME280;7185;51.854;6.622;2023-04-26T01:15:16;101585.50;;;6.04;73.90
14204;BME280;7185;51.854;6.622;2023-04-26T01:17:56;101583.69;;;6.00;74.36
14204;BME280;7185;51.854;6.622;2023-04-26T01:20:34;101586.16;;;5.94;74.27
14204;BME280;7185;51.854;6.622;2023-04-26T01:23:07;101597.31;;;5.86;74.24
14204;BME280;7185;51.854;6.622;2023-04-26T01:25:42;101593.00;;;5.87;74.25
14204;BME280;7185;51.854;6.622;2023-04-26T01:28:14;101593.94;;;5.92;74.19
14204;BME280;7185;51.854;6.622;2023-04-26T01:30:58;101590.47;;;5.92;73.84
14204;BME280;7185;51.854;6.622;2023-04-26T01:33:29;101584.47;;;5.97;73.71
14204;BME280;7185;51.854;6.622;2023-04-26T01:36:01;101589.59;;;5.93;74.35
14204;BME280;7185;51.854;6.622;2023-04-26T01:38:34;101588.69;;;5.89;73.90
14204;BME280;7185;51.854;6.622;2023-04-26T01:41:13;101588.66;;;5.86;74.40
14204;BME280;7185;51.854;6.622;2023-04-26T01:43:50;101590.44;;;5.90;74.07
14204;BME280;7185;51.854;6.622;2023-04-26T01:46:22;101585.09;;;5.81;74.36
14204;BME280;7185;51.854;6.622;2023-04-26T01:48:55;101588.47;;;5.77;74.22
14204;BME280;7185;51.854;6.622;2023-04-26T01:51:28;101583.34;;;5.81;74.18
14204;BME280;7185;51.854;6.622;2023-04-26T01:54:08;101587.63;;;5.78;74.39
14204;BME280;7185;51.854;6.622;2023-04-26T01:56:39;101587.53;;;5.71;74.47
14204;BME280;7185;51.854;6.622;2023-04-26T01:59:11;101586.69;;;5.74;74.64
14204;BME280;7185;51.854;6.622;2023-04-26T02:01:44;101595.34;;;5.71;74.51
14204;BME280;7185;51.854;6.622;2023-04-26T02:04:16;101594.44;;;5.71;74.86
14204;BME280;7185;51.854;6.622;2023-04-26T02:06:50;101594.38;;;5.66;74.71
14204;BME280;7185;51.854;6.622;2023-04-26T02:09:24;101595.34;;;5.73;74.77
14204;BME280;7185;51.854;6.622;2023-04-26T02:12:02;101595.34;;;5.73;74.91
14204;BME280;7185;51.854;6.622;2023-04-26T02:14:33;101601.28;;;5.64;75.25
14204;BME280;7185;51.854;6.622;2023-04-26T02:17:05;101595.97;;;5.59;75.06
14204;BME280;7185;51.854;6.622;2023-04-26T02:19:47;101606.41;;;5.61;75.42
14204;BME280;7185;51.854;6.622;2023-04-26T02:22:19;101602.03;;;5.58;75.63
14204;BME280;7185;51.854;6.622;2023-04-26T02:24:53;101600.22;;;5.54;75.39
14204;BME280;7185;51.854;6.622;2023-04-26T02:27:28;101601.09;;;5.55;75.81
14204;BME280;7185;51.854;6.622;2023-04-26T02:30:00;101600.22;;;5.54;75.61
14204;BME280;7185;51.854;6.622;2023-04-26T02:32:31;101597.63;;;5.53;76.11
14204;BME280;7185;51.854;6.622;2023-04-26T02:35:03;101601.09;;;5.55;75.64
14204;BME280;7185;51.854;6.622;2023-04-26T02:37:35;101595.88;;;5.55;75.98
14204;BME280;7185;51.854;6.622;2023-04-26T02:40:34;101594.38;;;5.66;75.29
14204;BME280;7185;51.854;6.622;2023-04-26T02:43:06;101597.03;;;5.69;74.74
14204;BME280;7185;51.854;6.622;2023-04-26T02:45:42;101596.00;;;5.61;74.88
14204;BME280;7185;51.854;6.622;2023-04-26T02:48:21;101594.28;;;5.60;75.06
14204;BME280;7185;51.854;6.622;2023-04-26T02:51:02;101590.88;;;5.66;74.96
14204;BME280;7185;51.854;6.622;2023-04-26T02:53:35;101594.28;;;5.62;74.87
14204;BME280;7185;51.854;6.622;2023-04-26T02:56:20;101599.22;;;5.48;75.18
14204;BME280;7185;51.854;6.622;2023-04-26T02:58:57;101594.38;;;5.66;74.40
14204;BME280;7185;51.854;6.622;2023-04-26T03:01:30;101590.84;;;5.63;74.56
14204;BME280;7185;51.854;6.622;2023-04-26T03:04:04;101594.31;;;5.63;74.51
14204;BME280;7185;51.854;6.622;2023-04-26T03:06:36;101580.34;;;5.56;74.76
14204;BME280;7185;51.854;6.622;2023-04-26T03:09:14;101587.25;;;5.56;74.79
14204;BME280;7185;51.854;6.622;2023-04-26T03:12:08;101589.00;;;5.57;74.73
14204;BME280;7185;51.854;6.622;2023-04-26T03:14:40;101588.97;;;5.55;74.98
14204;BME280;7185;51.854;6.622;2023-04-26T03:17:19;101589.72;;;5.48;75.25
14204;BME280;7185;51.854;6.622;2023-04-26T03:20:00;101585.34;;;5.46;75.30
14204;BME280;7185;51.854;6.622;2023-04-26T03:22:33;101590.41;;;5.39;75.46
14204;BME280;7185;51.854;6.622;2023-04-26T03:25:20;101586.94;;;5.40;75.39
14204;BME280;7185;51.854;6.622;2023-04-26T03:27:53;101584.25;;;5.36;75.51
14204;BME280;7185;51.854;6.622;2023-04-26T03:30:25;101586.03;;;5.37;75.75
14204;BME280;7185;51.854;6.622;2023-04-26T03:33:07;101582.41;;;5.29;76.33
14204;BME280;7185;51.854;6.622;2023-04-26T03:35:39;101585.03;;;5.30;75.80
14204;BME280;7185;51.854;6.622;2023-04-26T03:38:11;101574.53;;;5.24;75.89
14204;BME280;7185;51.854;6.622;2023-04-26T03:40:48;101581.34;;;5.19;76.25
14204;BME280;7185;51.854;6.622;2023-04-26T03:46:15;101576.97;;;5.16;76.26
14204;BME280;7185;51.854;6.622;2023-04-26T03:48:50;101566.50;;;5.13;76.26
14204;BME280;7185;51.854;6.622;2023-04-26T03:51:21;101567.34;;;5.10;76.01
14204;BME280;7185;51.854;6.622;2023-04-26T03:54:00;101573.41;;;5.11;76.18
14204;BME280;7185;51.854;6.622;2023-04-26T03:56:34;101563.81;;;5.08;76.43
14204;BME280;7185;51.854;6.622;2023-04-26T03:59:12;101569.03;;;5.08;76.29
14204;BME280;7185;51.854;6.622;2023-04-26T04:01:47;101578.41;;;5.02;76.48
14204;BME280;7185;51.854;6.622;2023-04-26T04:04:29;101582.22;;;5.18;76.04
14204;BME280;7185;51.854;6.622;2023-04-26T04:07:01;101573.38;;;5.09;76.17
14204;BME280;7185;51.854;6.622;2023-04-26T04:09:36;101576.63;;;5.01;77.59
14204;BME280;7185;51.854;6.622;2023-04-26T04:12:07;101575.84;;;5.03;76.90
14204;BME280;7185;51.854;6.622;2023-04-26T04:14:41;101580.34;;;5.10;76.30
14204;BME280;7185;51.854;6.622;2023-04-26T04:17:47;101573.97;;;4.96;77.34
14204;BME280;7185;51.854;6.622;2023-04-26T04:20:19;101575.78;;;5.00;77.50
14204;BME280;7185;51.854;6.622;2023-04-26T04:22:54;101575.78;;;5.00;77.09
14204;BME280;7185;51.854;6.622;2023-04-26T04:25:27;101577.47;;;4.98;77.21
14204;BME280;7185;51.854;6.622;2023-04-26T04:27:59;101581.94;;;5.05;77.47
14204;BME280;7185;51.854;6.622;2023-04-26T04:30:32;101586.38;;;5.09;76.88
14204;BME280;7185;51.854;6.622;2023-04-26T04:33:05;101582.13;;;5.13;76.88
14204;BME280;7185;51.854;6.622;2023-04-26T04:35:40;101589.84;;;5.10;76.75
14204;BME280;7185;51.854;6.622;2023-04-26T04:38:24;101588.91;;;5.08;77.29
14204;BME280;7185;51.854;6.622;2023-04-26T04:41:03;101586.38;;;5.09;77.38
14204;BME280;7185;51.854;6.622;2023-04-26T04:43:35;101584.72;;;5.15;77.32
14204;BME280;7185;51.854;6.622;2023-04-26T04:46:11;101588.19;;;5.15;77.12
14204;BME280;7185;51.854;6.622;2023-04-26T05:55:16;101622.25;;;7.52;73.27
14204;BME280;7185;51.854;6.622;2023-04-26T05:57:49;101623.16;;;7.55;73.05
14204;BME280;7185;51.854;6.622;2023-04-26T06:00:21;101624.91;;;7.59;71.85
14204;BME280;7185;51.854;6.622;2023-04-26T06:02:53;101628.56;;;7.74;72.00
14204;BME280;7185;51.854;6.622;2023-04-26T06:05:25;101635.63;;;7.86;72.63
14204;BME280;7185;51.854;6.622;2023-04-26T06:07:57;101639.25;;;7.98;71.64
14204;BME280;7185;51.854;6.622;2023-04-26T06:10:30;101632.41;;;8.13;70.95
14204;BME280;7185;51.854;6.622;2023-04-26T06:13:02;101626.47;;;8.34;71.04
14204;BME280;7185;51.854;6.622;2023-04-26T06:15:33;101643.84;;;8.30;69.91
14204;BME280;7185;51.854;6.622;2023-04-26T06:18:05;101654.06;;;8.03;70.64
14204;BME280;7185;51.854;6.622;2023-04-26T06:20:36;101646.38;;;8.21;70.11
14204;BME280;7185;51.854;6.622;2023-04-26T06:23:08;101639.47;;;8.26;69.90
14204;BME280;7185;51.854;6.622;2023-04-26T06:25:41;101650.13;;;8.51;69.64
14204;BME280;7185;51.854;6.622;2023-04-26T06:28:14;101650.06;;;8.42;69.29
14204;BME280;7185;51.854;6.622;2023-04-26T06:30:46;101645.66;;;8.35;69.69
14204;BME280;7185;51.854;6.622;2023-04-26T06:33:17;101651.00;;;8.49;69.22
14204;BME280;7185;51.854;6.622;2023-04-26T06:35:49;101650.19;;;8.56;68.54
14204;BME280;7185;51.854;6.622;2023-04-26T06:38:21;101649.31;;;8.57;68.72
14204;BME280;7185;51.854;6.622;2023-04-26T06:40:54;101651.16;;;8.72;68.62
14204;BME280;7185;51.854;6.622;2023-04-26T06:43:26;101653.91;;;8.93;68.17
14204;BME280;7185;51.854;6.622;2023-04-26T06:45:57;101647.75;;;8.85;67.88
14204;BME280;7185;51.854;6.622;2023-04-26T06:48:29;101645.22;;;9.01;67.34
14204;BME280;7185;51.854;6.622;2023-04-26T06:51:04;101645.28;;;9.16;67.30
14204;BME280;7185;51.854;6.622;2023-04-26T06:53:37;101641.84;;;9.22;67.09
14204;BME280;7185;51.854;6.622;2023-04-26T06:56:10;101646.25;;;9.40;67.30
14204;BME280;7185;51.854;6.622;2023-04-26T06:58:56;101641.94;;;9.57;67.69
14204;BME280;7185;51.854;6.622;2023-04-26T07:01:28;101640.22;;;9.80;66.80
14204;BME280;7185;51.854;6.622;2023-04-26T07:04:04;101635.88;;;9.93;64.49
14204;BME280;7185;51.854;6.622;2023-04-26T07:06:39;101640.25;;;9.91;63.66
14204;BME280;7185;51.854;6.622;2023-04-26T07:09:14;101639.38;;;9.82;64.11
14204;BME280;7185;51.854;6.622;2023-04-26T07:11:47;101650.75;;;10.09;63.86
14204;BME280;7185;51.854;6.622;2023-04-26T07:14:18;101649.91;;;10.21;62.74
14204;BME280;7185;51.854;6.622;2023-04-26T07:16:50;101645.53;;;10.59;63.31
14204;BME280;7185;51.854;6.622;2023-04-26T07:19:22;101643.78;;;10.48;62.86
14204;BME280;7185;51.854;6.622;2023-04-26T07:21:53;101650.78;;;10.63;62.37
14204;BME280;7185;51.854;6.622;2023-04-26T07:24:25;101652.53;;;10.54;60.12
14204;BME280;7185;51.854;6.622;2023-04-26T07:26:58;101658.59;;;10.82;60.01
14204;BME280;7185;51.854;6.622;2023-04-26T07:29:30;101655.09;;;10.89;60.39
14204;BME280;7185;51.854;6.622;2023-04-26T07:32:02;101655.06;;;11.00;59.59
14204;BME280;7185;51.854;6.622;2023-04-26T07:34:34;101642.00;;;10.81;60.89
14204;BME280;7185;51.854;6.622;2023-04-26T07:37:05;101642.81;;;10.94;61.01
14204;BME280;7185;51.854;6.622;2023-04-26T07:39:37;101643.63;;;11.13;61.08
14204;BME280;7185;51.854;6.622;2023-04-26T07:42:10;101647.06;;;11.31;59.02
14204;BME280;7185;51.854;6.622;2023-04-26T07:44:41;101645.25;;;11.42;58.97
14204;BME280;7185;51.854;6.622;2023-04-26T07:47:13;101644.38;;;11.45;57.95
14204;BME280;7185;51.854;6.622;2023-04-26T07:49:45;101645.13;;;11.64;57.00
14204;BME280;7185;51.854;6.622;2023-04-26T07:52:16;101647.63;;;11.86;57.90
14204;BME280;7185;51.854;6.622;2023-04-26T07:54:48;101649.38;;;11.85;56.61
14204;BME280;7185;51.854;6.622;2023-04-26T07:57:21;101651.22;;;11.74;55.56
14204;BME280;7185;51.854;6.622;2023-04-26T07:59:53;101649.56;;;11.51;53.62
14204;BME280;7185;51.854;6.622;2023-04-26T08:02:25;101659.19;;;11.54;53.77
14204;BME280;7185;51.854;6.622;2023-04-26T08:04:57;101649.41;;;11.82;52.81
14204;BME280;7185;51.854;6.622;2023-04-26T08:07:29;101649.28;;;12.04;53.15
14204;BME280;7185;51.854;6.622;2023-04-26T08:10:00;101646.63;;;12.08;52.85
14204;BME280;7185;51.854;6.622;2023-04-26T08:12:34;101648.44;;;12.00;52.39
14204;BME280;7185;51.854;6.622;2023-04-26T08:15:07;101651.09;;;11.94;52.64
14204;BME280;7185;51.854;6.622;2023-04-26T08:17:38;101640.47;;;12.09;52.61
14204;BME280;7185;51.854;6.622;2023-04-26T08:20:11;101644.94;;;12.01;51.15
14204;BME280;7185;51.854;6.622;2023-04-26T08:22:43;101644.03;;;12.02;51.54
14204;BME280;7185;51.854;6.622;2023-04-26T08:25:15;101645.63;;;12.20;51.56
14204;BME280;7185;51.854;6.622;2023-04-26T08:27:48;101651.63;;;12.39;51.37
14204;BME280;7185;51.854;6.622;2023-04-26T08:30:19;101640.03;;;12.59;50.70
14204;BME280;7185;51.854;6.622;2023-04-26T08:32:51;101651.69;;;12.33;50.67
14204;BME280;7185;51.854;6.622;2023-04-26T08:35:23;101659.75;;;12.10;51.40
14204;BME280;7185;51.854;6.622;2023-04-26T08:37:55;101641.16;;;12.33;51.05
14204;BME280;7185;51.854;6.622;2023-04-26T08:40:26;101654.28;;;12.38;50.15
14204;BME280;7185;51.854;6.622;2023-04-26T08:42:59;101653.34;;;12.43;49.82
14204;BME280;7185;51.854;6.622;2023-04-26T08:45:33;101646.28;;;12.49;49.79
14204;BME280;7185;51.854;6.622;2023-04-26T08:48:10;101655.28;;;12.20;49.58
14204;BME280;7185;51.854;6.622;2023-04-26T08:50:44;101656.09;;;12.30;50.09
14204;BME280;7185;51.854;6.622;2023-04-26T08:53:16;101654.66;;;11.82;50.17
14204;BME280;7185;51.854;6.622;2023-04-26T08:55:49;101658.97;;;11.91;50.71
14204;BME280;7185;51.854;6.622;2023-04-26T08:58:22;101657.28;;;11.84;51.21
14204;BME280;7185;51.854;6.622;2023-04-26T09:00:54;101655.59;;;11.72;49.21
14204;BME280;7185;51.854;6.622;2023-04-26T09:03:26;101660.78;;;11.83;48.50
14204;BME280;7185;51.854;6.622;2023-04-26T09:05:59;101660.88;;;11.67;50.42
14204;BME280;7185;51.854;6.622;2023-04-26T09:08:34;101658.34;;;11.52;50.66
14204;BME280;7185;51.854;6.622;2023-04-26T09:11:06;101661.78;;;11.63;50.16
14204;BME280;7185;51.854;6.622;2023-04-26T09:13:39;101663.38;;;11.87;49.93
14204;BME280;7185;51.854;6.622;2023-04-26T09:16:11;101660.72;;;11.92;48.47
14204;BME280;7185;51.854;6.622;2023-04-26T09:18:47;101656.06;;;12.34;48.91
14204;BME280;7185;51.854;6.622;2023-04-26T09:21:20;101648.13;;;12.37;49.51
14204;BME280;7185;51.854;6.622;2023-04-26T09:23:58;101653.44;;;12.31;49.46
14204;BME280;7185;51.854;6.622;2023-04-26T09:26:33;101651.91;;;12.08;48.89
14204;BME280;7185;51.854;6.622;2023-04-26T09:29:14;101653.78;;;11.82;48.95
14204;BME280;7185;51.854;6.622;2023-04-26T09:31:47;101653.84;;;11.74;50.94
14204;BME280;7185;51.854;6.622;2023-04-26T09:34:20;101660.19;;;11.31;51.35
14204;BME280;7185;51.854;6.622;2023-04-26T09:36:53;101651.31;;;11.54;51.08
14204;BME280;7185;51.854;6.622;2023-04-26T09:39:30;101647.78;;;11.61;50.28
14204;BME280;7185;51.854;6.622;2023-04-26T09:42:03;101650.59;;;11.24;50.39
14204;BME280;7185;51.854;6.622;2023-04-26T09:44:36;101653.97;;;11.52;50.89
14204;BME280;7185;51.854;6.622;2023-04-26T09:47:10;101653.03;;;11.56;51.37
14204;BME280;7185;51.854;6.622;2023-04-26T09:49:44;101639.84;;;11.67;49.45
14204;BME280;7185;51.854;6.622;2023-04-26T09:52:18;101639.78;;;11.79;49.09
14204;BME280;7185;51.854;6.622;2023-04-26T09:54:51;101643.16;;;12.03;48.92
14204;BME280;7185;51.854;6.622;2023-04-26T09:57:23;101637.56;;;12.43;48.90
14204;BME280;7185;51.854;6.622;2023-04-26T09:59:56;101634.44;;;12.93;46.81
14204;BME280;7185;51.854;6.622;2023-04-26T10:02:30;101628.97;;;13.08;44.97
14204;BME280;7185;51.854;6.622;2023-04-26T10:05:02;101632.91;;;13.47;45.73
14204;BME280;7185;51.854;6.622;2023-04-26T10:07:36;101631.31;;;13.30;43.59
14204;BME280;7185;51.854;6.622;2023-04-26T10:10:09;101626.31;;;13.08;43.25
14204;BME280;7185;51.854;6.622;2023-04-26T10:12:42;101625.34;;;13.19;43.85
14204;BME280;7185;51.854;6.622;2023-04-26T10:15:17;101627.06;;;13.21;43.84
14204;BME280;7185;51.854;6.622;2023-04-26T10:17:49;101622.03;;;13.01;44.27
14204;BME280;7185;51.854;6.622;2023-04-26T10:20:21;101631.44;;;13.22;44.63
14204;BME280;7185;51.854;6.622;2023-04-26T10:22:56;101627.06;;;13.18;44.60
14204;BME280;7185;51.854;6.622;2023-04-26T10:25:34;101634.00;;;13.27;45.69
14204;BME280;7185;51.854;6.622;2023-04-26T10:28:06;101631.50;;;13.15;45.40
14204;BME280;7185;51.854;6.622;2023-04-26T10:30:56;101620.16;;;13.11;44.36
14204;BME280;7185;51.854;6.622;2023-04-26T10:33:27;101629.56;;;13.31;45.04
14204;BME280;7185;51.854;6.622;2023-04-26T10:36:02;101629.06;;;13.01;46.34
14204;BME280;7185;51.854;6.622;2023-04-26T10:38:35;101623.59;;;13.18;44.26
14204;BME280;7185;51.854;6.622;2023-04-26T10:41:29;101622.38;;;12.72;40.58
14204;BME280;7185;51.854;6.622;2023-04-26T10:44:36;101624.34;;;12.50;41.78
14204;BME280;7185;51.854;6.622;2023-04-26T10:47:30;101621.63;;;12.57;41.43
14204;BME280;7185;51.854;6.622;2023-04-26T10:50:04;101622.47;;;12.64;41.72
14204;BME280;7185;51.854;6.622;2023-04-26T10:52:37;101621.28;;;12.90;42.90
14204;BME280;7185;51.854;6.622;2023-04-26T10:55:10;101610.69;;;12.96;44.80
14204;BME280;7185;51.854;6.622;2023-04-26T10:57:47;101621.53;;;12.65;44.57
14204;BME280;7185;51.854;6.622;2023-04-26T11:00:26;101622.88;;;13.06;44.48
14204;BME280;7185;51.854;6.622;2023-04-26T11:03:08;101614.84;;;13.14;43.28
14204;BME280;7185;51.854;6.622;2023-04-26T11:05:50;101614.03;;;13.07;43.97
14204;BME280;7185;51.854;6.622;2023-04-26T11:08:27;101609.56;;;13.17;44.66
14204;BME280;7185;51.854;6.622;2023-04-26T11:11:06;101612.28;;;13.10;43.94
14204;BME280;7185;51.854;6.622;2023-04-26T11:13:40;101620.47;;;12.86;43.99
14204;BME280;7185;51.854;6.622;2023-04-26T11:16:14;101624.13;;;12.73;44.51
14204;BME280;7185;51.854;6.622;2023-04-26T11:18:47;101619.16;;;12.43;45.95
14204;BME280;7185;51.854;6.622;2023-04-26T11:21:20;101615.63;;;12.44;46.04
14204;BME280;7185;51.854;6.622;2023-04-26T11:23:52;101622.44;;;12.63;44.28
14204;BME280;7185;51.854;6.622;2023-04-26T11:26:31;101616.28;;;12.65;44.65
14204;BME280;7185;51.854;6.622;2023-04-26T11:29:06;101621.53;;;12.65;46.69
14204;BME280;7185;51.854;6.622;2023-04-26T11:31:38;101616.25;;;12.71;44.79
14204;BME280;7185;51.854;6.622;2023-04-26T11:34:11;101618.84;;;12.73;44.49
14204;BME280;7185;51.854;6.622;2023-04-26T11:36:43;101607.19;;;12.94;43.97
14204;BME280;7185;51.854;6.622;2023-04-26T11:39:15;101613.41;;;12.90;42.65
14204;BME280;7185;51.854;6.622;2023-04-26T11:41:47;101611.34;;;13.15;42.77
14204;BME280;7185;51.854;6.622;2023-04-26T11:44:19;101611.22;;;13.25;42.12
14204;BME280;7185;51.854;6.622;2023-04-26T11:46:51;101602.97;;;13.51;41.31
14204;BME280;7185;51.854;6.622;2023-04-26T11:49:24;101609.41;;;13.27;41.37
14204;BME280;7185;51.854;6.622;2023-04-26T11:51:56;101605.31;;;13.05;41.00
14204;BME280;7185;51.854;6.622;2023-04-26T11:54:28;101613.94;;;13.17;40.90
14204;BME280;7185;51.854;6.622;2023-04-26T11:57:00;101614.19;;;12.98;41.02
14204;BME280;7185;51.854;6.622;2023-04-26T11:59:43;101608.78;;;13.07;41.70
14204;BME280;7185;51.854;6.622;2023-04-26T12:02:15;101605.47;;;12.93;43.46
14204;BME280;7185;51.854;6.622;2023-04-26T12:04:57;101611.81;;;12.73;43.10
14204;BME280;7185;51.854;6.622;2023-04-26T12:07:33;101605.53;;;12.87;42.37
14204;BME280;7185;51.854;6.622;2023-04-26T12:10:16;101608.38;;;12.65;42.84
14204;BME280;7185;51.854;6.622;2023-04-26T12:12:48;101611.81;;;12.75;42.75
14204;BME280;7185;51.854;6.622;2023-04-26T12:15:22;101608.19;;;12.85;41.53
14204;BME280;7185;51.854;6.622;2023-04-26T12:17:55;101608.72;;;13.14;42.50
14204;BME280;7185;51.854;6.622;2023-04-26T12:20:30;101607.16;;;13.00;42.01
14204;BME280;7185;51.854;6.622;2023-04-26T12:23:03;101602.63;;;13.10;42.57
14204;BME280;7185;51.854;6.622;2023-04-26T12:25:37;101604.72;;;13.52;42.86
14204;BME280;7185;51.854;6.622;2023-04-26T12:28:11;101599.66;;;14.47;42.01
14204;BME280;7185;51.854;6.622;2023-04-26T12:30:43;101597.47;;;15.54;40.33
14204;BME280;7185;51.854;6.622;2023-04-26T12:33:15;101596.03;;;16.49;36.79
14204;BME280;7185;51.854;6.622;2023-04-26T12:35:50;101595.47;;;16.38;36.02
14204;BME280;7185;51.854;6.622;2023-04-26T12:38:22;101590.84;;;16.45;35.33
14204;BME280;7185;51.854;6.622;2023-04-26T12:40:53;101592.69;;;16.74;35.95
14204;BME280;7185;51.854;6.622;2023-04-26T12:43:28;101597.25;;;16.03;35.31
14204;BME280;7185;51.854;6.622;2023-04-26T12:46:00;101593.28;;;16.19;36.00
14204;BME280;7185;51.854;6.622;2023-04-26T12:48:31;101595.38;;;16.41;35.64
14204;BME280;7185;51.854;6.622;2023-04-26T12:51:07;101593.22;;;17.18;35.44
14204;BME280;7185;51.854;6.622;2023-04-26T12:53:38;101587.50;;;17.02;34.85
14204;BME280;7185;51.854;6.622;2023-04-26T12:56:10;101592.09;;;16.64;35.41
14204;BME280;7185;51.854;6.622;2023-04-26T12:58:41;101596.03;;;16.16;36.94
14204;BME280;7185;51.854;6.622;2023-04-26T13:01:14;101607.53;;;15.38;38.12
14204;BME280;7185;51.854;6.622;2023-04-26T13:03:46;101605.44;;;15.53;37.26
14204;BME280;7185;51.854;6.622;2023-04-26T13:06:19;101604.06;;;15.36;38.79
14204;BME280;7185;51.854;6.622;2023-04-26T13:08:50;101602.00;;;15.49;38.57
14204;BME280;7185;51.854;6.622;2023-04-26T13:11:22;101604.41;;;15.21;39.22
14204;BME280;7185;51.854;6.622;2023-04-26T13:13:54;101602.16;;;15.01;39.46
14204;BME280;7185;51.854;6.622;2023-04-26T13:16:25;101600.81;;;15.23;40.26
14204;BME280;7185;51.854;6.622;2023-04-26T13:18:57;101598.16;;;15.23;39.82
14204;BME280;7185;51.854;6.622;2023-04-26T13:21:30;101604.06;;;15.36;39.25
14204;BME280;7185;51.854;6.622;2023-04-26T13:24:02;101595.81;;;15.50;39.32
14204;BME280;7185;51.854;6.622;2023-04-26T13:26:34;101602.97;;;15.45;37.86
14204;BME280;7185;51.854;6.622;2023-04-26T13:29:06;101599.03;;;15.63;37.75
14204;BME280;7185;51.854;6.622;2023-04-26T13:31:37;101595.94;;;15.83;36.93
14204;BME280;7185;51.854;6.622;2023-04-26T13:34:10;101583.81;;;16.45;34.99
14204;BME280;7185;51.854;6.622;2023-04-26T13:36:43;101584.97;;;16.66;33.99
14204;BME280;7185;51.854;6.622;2023-04-26T13:39:15;101581.94;;;17.12;35.15
14204;BME280;7185;51.854;6.622;2023-04-26T13:41:46;101589.38;;;17.57;34.76
14204;BME280;7185;51.854;6.622;2023-04-26T13:44:18;101594.31;;;17.41;34.41
14204;BME280;7185;51.854;6.622;2023-04-26T13:46:50;101586.59;;;17.62;33.96
14204;BME280;7185;51.854;6.622;2023-04-26T13:49:23;101589.56;;;17.23;35.31
14204;BME280;7185;51.854;6.622;2023-04-26T13:51:56;101594.56;;;17.03;34.35
14204;BME280;7185;51.854;6.622;2023-04-26T13:54:28;101592.78;;;16.71;34.76
14204;BME280;7185;51.854;6.622;2023-04-26T13:57:00;101594.78;;;16.30;34.78
14204;BME280;7185;51.854;6.622;2023-04-26T13:59:32;101589.72;;;16.53;35.16
14204;BME280;7185;51.854;6.622;2023-04-26T14:02:03;101594.97;;;16.56;35.24
14204;BME280;7185;51.854;6.622;2023-04-26T14:04:35;101596.19;;;16.10;34.78
14204;BME280;7185;51.854;6.622;2023-04-26T14:07:08;101593.72;;;16.02;35.27
14204;BME280;7185;51.854;6.622;2023-04-26T14:09:40;101596.56;;;15.95;35.28
14204;BME280;7185;51.854;6.622;2023-04-26T14:12:11;101594.72;;;15.60;36.97
14204;BME280;7185;51.854;6.622;2023-04-26T14:14:43;101594.09;;;15.48;36.80
14204;BME280;7185;51.854;6.622;2023-04-26T14:17:15;101593.78;;;15.61;36.59
14204;BME280;7185;51.854;6.622;2023-04-26T14:19:47;101600.34;;;15.45;38.15
14204;BME280;7185;51.854;6.622;2023-04-26T14:22:20;101594.88;;;15.12;36.87
14204;BME280;7185;51.854;6.622;2023-04-26T14:24:51;101596.75;;;15.07;37.37
14204;BME280;7185;51.854;6.622;2023-04-26T14:27:23;101595.28;;;14.93;38.25
14204;BME280;7185;51.854;6.622;2023-04-26T14:29:54;101599.22;;;14.72;38.33
14204;BME280;7185;51.854;6.622;2023-04-26T14:32:26;101598.91;;;14.41;37.26
14204;BME280;7185;51.854;6.622;2023-04-26T14:34:58;101591.81;;;14.43;38.22
14204;BME280;7185;51.854;6.622;2023-04-26T14:37:31;101595.91;;;14.59;38.55
14204;BME280;7185;51.854;6.622;2023-04-26T14:40:03;101589.84;;;14.54;39.81
14204;BME280;7185;51.854;6.622;2023-04-26T14:42:35;101595.13;;;14.53;40.31
14204;BME280;7185;51.854;6.622;2023-04-26T14:45:08;101586.41;;;14.49;40.07
14204;BME280;7185;51.854;6.622;2023-04-26T14:47:40;101594.44;;;14.43;40.45
14204;BME280;7185;51.854;6.622;2023-04-26T14:50:12;101587.03;;;14.63;40.24